To NAV CANADA Home Page Login to a new session Search on AWWS site Feedback and Comments Disclaimer Vers la page française équivalente Tips FAQ What's new on the site To the Forecasts and Observations / NOTAM section To "File a Flight Plan" website Publications and other links Update of the User's profile FIC Telephone Numbers My Weather Data Folder Route Weather Data Regional Weather Data Local Weather Data To the Forecasts and Observations / NOTAM section
Request Generated 08/03/2015 at 19:09:24 UTC . Weather information available at that time is displayed.

METAR/TAF

LYNN LAKE/MB    (show WxCam)

METAR CYYL 031900Z AUTO 34008KT 300V020 9SM BKN027 BKN075 OVC086
17/10 A2997 RMK SLP159 DENSITY ALT 1600FT=
METAR CYYL 031800Z AUTO 36008KT 310V030 9SM BKN025 BKN030 OVC060
15/09 A2997 RMK SLP160 DENSITY ALT 1300FT=
SPECI CYYL 031739Z AUTO 01005KT 9SM BKN025 OVC060 15/10 A2997 RMK
SLP158 DENSITY ALT 1300FT=
SPECI CYYL 031736Z AUTO 02007KT 340V040 9SM BKN023 BKN027 OVC060
15/10 A2997 RMK SLP158 DENSITY ALT 1300FT=
SPECI CYYL 031734Z AUTO 01007KT 340V040 9SM SCT021 BKN027 OVC060
15/10 A2997 RMK SLP158 DENSITY ALT 1300FT=
METAR CYYL 031700Z AUTO 36009KT 9SM OVC023 14/09 A2997 RMK SLP159
DENSITY ALT 1200FT=

TAF CYYL 031838Z 0319/0407 36010KT P6SM BKN030 OVC060 TEMPO 0319/0407
BKN020 OVC060
BECMG 0402/0404 VRB03KT
RMK FCST BASED ON AUTO OBS. NXT FCST BY 040100Z=
Your time UTC time
Weather data provided by Environment Canada and NAV CANADA